Time;durP1;ratioP1;P1;durP2;ratioP2;P2;SDS_P1;SDS_P2;PMS_P1;PMS_P2;Temp;Humidity;BMP_temperature;BMP_pressure;BME280_temperature;BME280_humidity;BME280_pressure;Samples;Min_cycle;Max_cycle;Signal;HPM_P1;HPM_P2
2022/04/30 11:56:38;;;;;;;11.73;9.07;;;15.50;99.90;;;;;;4916201;29;20210;-75
2022/04/30 11:59:05;;;;;;;12.17;9.33;;;15.20;99.90;;;;;;4919112;29;20173;-75
2022/04/30 12:01:33;;;;;;;13.40;10.73;;;15.10;99.90;;;;;;4902195;29;20508;-75
2022/04/30 12:04:11;;;;;;;11.40;9.53;;;15.10;99.90;;;;;;4902050;29;20208;-75
2022/04/30 12:06:37;;;;;;;15.07;9.53;;;14.90;99.90;;;;;;4887633;29;20182;-75
2022/04/30 12:09:17;;;;;;;11.37;9.47;;;15.10;99.90;;;;;;4870969;29;20210;-75
2022/04/30 13:52:43;;;;;;;12.20;8.80;;;15.90;99.90;;;;;;4965219;23;20226;-75
2022/04/30 13:55:09;;;;;;;11.67;8.60;;;15.80;99.90;;;;;;4899734;29;20593;-76
2022/04/30 13:57:36;;;;;;;10.90;8.30;;;15.80;99.90;;;;;;4884112;29;20281;-75
2022/04/30 14:00:07;;;;;;;9.47;8.03;;;15.90;99.90;;;;;;4868853;29;20269;-76
2022/04/30 14:02:33;;;;;;;9.30;8.27;;;15.90;99.90;;;;;;4899245;29;20194;-81
2022/04/30 14:04:58;;;;;;;10.97;7.73;;;15.90;99.90;;;;;;4884350;29;20186;-75
2022/04/30 14:07:25;;;;;;;12.33;9.60;;;16.00;99.90;;;;;;4899279;29;20209;-77
2022/04/30 14:09:52;;;;;;;10.40;8.87;;;16.00;99.90;;;;;;4916310;29;20293;-76
2022/04/30 14:12:18;;;;;;;11.67;8.80;;;15.90;99.90;;;;;;4884655;29;20285;-79
2022/04/30 14:14:56;;;;;;;10.37;8.70;;;15.80;99.90;;;;;;4870040;29;20660;-78
2022/04/30 14:20:11;;;;;;;12.23;8.33;;;15.80;99.90;;;;;;4921019;29;20203;-79
2022/04/30 14:22:38;;;;;;;11.20;8.97;;;15.80;99.90;;;;;;4886786;29;20210;-78
2022/04/30 14:25:07;;;;;;;13.50;9.80;;;15.70;99.90;;;;;;4886057;29;20197;-78
2022/04/30 14:27:34;;;;;;;12.07;9.07;;;15.60;99.90;;;;;;4886760;29;20340;-79
2022/04/30 14:30:00;;;;;;;10.60;8.27;;;15.60;99.90;;;;;;4871233;29;20277;-78
2022/04/30 14:32:26;;;;;;;11.17;8.37;;;15.60;99.90;;;;;;4871478;29;20207;-79
2022/04/30 14:34:53;;;;;;;9.40;8.00;;;15.60;99.90;;;;;;4870643;29;20239;-79
2022/04/30 14:37:19;;;;;;;9.90;7.60;;;15.70;99.90;;;;;;4901413;29;20549;-79
2022/04/30 14:39:45;;;;;;;8.60;6.50;;;15.80;99.90;;;;;;4884354;29;20190;-78
2022/04/30 14:42:10;;;;;;;8.80;6.80;;;15.90;99.90;;;;;;4869562;29;20292;-78
2022/04/30 14:44:42;;;;;;;7.33;6.10;;;16.00;99.90;;;;;;4898938;29;20193;-77
2022/04/30 14:47:08;;;;;;;9.63;7.40;;;15.90;99.90;;;;;;4884255;29;20210;-77
2022/04/30 14:49:35;;;;;;;8.40;7.20;;;15.90;99.90;;;;;;4898209;29;20210;-77
2022/04/30 14:52:01;;;;;;;7.30;6.37;;;15.80;99.90;;;;;;4900307;29;20217;-78
2022/04/30 14:54:27;;;;;;;9.17;7.00;;;15.90;99.90;;;;;;4887320;29;20186;-77
2022/04/30 14:56:53;;;;;;;7.87;6.47;;;15.70;99.90;;;;;;4887022;29;20217;-77
2022/04/30 14:59:18;;;;;;;7.00;5.57;;;15.80;99.90;;;;;;4887535;29;20277;-76
2022/04/30 15:01:45;;;;;;;7.13;6.40;;;15.70;99.90;;;;;;4871645;29;20233;-78
2022/04/30 15:04:11;;;;;;;7.93;6.50;;;15.50;99.90;;;;;;4872037;29;20182;-78
2022/04/30 15:06:36;;;;;;;8.87;6.20;;;15.40;99.90;;;;;;4887380;29;20188;-78
2022/04/30 15:09:02;;;;;;;6.60;5.87;;;15.20;99.90;;;;;;4902703;29;20222;-78
2022/04/30 15:11:28;;;;;;;11.33;6.17;;;15.20;99.90;;;;;;4871675;29;20202;-78
2022/04/30 15:13:54;;;;;;;10.37;6.20;;;15.00;99.90;;;;;;4902678;29;20257;-78
2022/04/30 15:16:21;;;;;;;7.30;6.47;;;14.90;99.90;;;;;;4902745;29;20185;-78
2022/04/30 15:18:46;;;;;;;8.17;7.33;;;14.90;99.90;;;;;;4902499;29;20186;-77
2022/04/30 15:21:12;;;;;;;7.17;6.33;;;14.80;99.90;;;;;;4871719;29;20206;-78
2022/04/30 15:23:38;;;;;;;6.87;5.77;;;14.80;99.90;;;;;;4902561;29;20182;-78
2022/04/30 15:26:04;;;;;;;6.63;5.90;;;14.80;99.90;;;;;;4902308;29;20193;-78
2022/04/30 15:28:30;;;;;;;8.90;6.40;;;14.80;99.90;;;;;;4886846;29;20210;-78
2022/04/30 15:30:56;;;;;;;9.03;6.33;;;14.70;99.90;;;;;;4886799;29;20206;-78
2022/04/30 15:33:22;;;;;;;8.43;5.80;;;14.70;99.90;;;;;;4902126;29;20179;-78
2022/04/30 15:35:48;;;;;;;6.87;5.77;;;14.80;99.90;;;;;;4886691;29;20557;-78
2022/04/30 15:38:14;;;;;;;7.53;5.87;;;14.70;99.90;;;;;;4871083;29;20214;-78
2022/04/30 15:40:40;;;;;;;7.67;5.87;;;14.80;99.90;;;;;;4886627;29;20186;-78
2022/04/30 15:43:06;;;;;;;6.90;5.93;;;15.20;99.90;;;;;;4871276;29;20197;-78
2022/04/30 15:45:32;;;;;;;9.27;5.60;;;15.20;99.90;;;;;;4919010;29;20179;-78
2022/04/30 15:56:10;;;;;;;8.87;5.60;;;15.50;99.90;;;;;;4904635;29;20242;-78
2022/04/30 15:58:37;;;;;;;7.17;6.17;;;15.60;99.90;;;;;;4886310;29;20224;-78
2022/04/30 16:01:03;;;;;;;8.30;5.63;;;15.80;99.90;;;;;;4901863;29;20672;-78
2022/04/30 16:03:29;;;;;;;5.70;5.20;;;15.90;99.90;;;;;;4869609;29;20190;-78
2022/04/30 16:05:55;;;;;;;8.10;6.43;;;15.90;99.90;;;;;;4886098;29;20225;-78
2022/04/30 16:08:24;;;;;;;7.13;5.20;;;15.70;99.90;;;;;;4870774;29;20625;-78
2022/04/30 16:10:50;;;;;;;6.97;5.50;;;15.80;99.90;;;;;;4886510;29;20254;-78
2022/04/30 16:13:16;;;;;;;6.87;5.90;;;15.70;99.90;;;;;;4886080;29;20182;-78
2022/04/30 16:15:42;;;;;;;8.10;5.40;;;15.70;99.90;;;;;;4870482;29;20572;-78
2022/04/30 16:18:08;;;;;;;6.10;5.50;;;15.90;99.90;;;;;;4885860;29;20190;-78
2022/04/30 16:20:34;;;;;;;6.70;5.60;;;16.00;99.90;;;;;;4870551;29;20261;-78
2022/04/30 16:23:00;;;;;;;9.60;6.87;;;15.80;99.90;;;;;;4901242;29;20549;-78
2022/04/30 16:25:26;;;;;;;6.50;5.60;;;15.60;99.90;;;;;;4901463;29;20638;-77
2022/04/30 16:27:52;;;;;;;7.57;5.90;;;15.10;99.90;;;;;;4901425;29;20206;-78
2022/04/30 16:30:18;;;;;;;6.70;5.40;;;14.80;99.90;;;;;;4885607;29;20187;-78
2022/04/30 16:32:44;;;;;;;7.80;6.10;;;14.70;99.90;;;;;;4885235;29;20213;-78
2022/04/30 16:35:10;;;;;;;6.53;5.90;;;14.50;99.90;;;;;;4886000;29;20182;-78
2022/04/30 16:37:36;;;;;;;6.40;5.70;;;14.40;99.90;;;;;;4918456;29;20175;-78
2022/04/30 16:40:02;;;;;;;7.27;5.63;;;14.30;99.90;;;;;;4885929;29;20541;-78
2022/04/30 16:42:28;;;;;;;11.37;10.17;;;14.20;99.90;;;;;;4885415;29;20707;-78
2022/04/30 16:44:53;;;;;;;11.13;7.63;;;14.10;99.90;;;;;;4885938;29;20183;-78
2022/04/30 16:47:19;;;;;;;11.07;8.90;;;14.00;99.90;;;;;;4870249;29;20593;-78
2022/04/30 16:49:45;;;;;;;22.30;14.23;;;13.90;99.90;;;;;;4885570;29;20278;-78
2022/04/30 16:52:23;;;;;;;17.40;12.73;;;13.80;99.90;;;;;;4870021;29;20242;-78
2022/04/30 16:57:40;;;;;;;8.77;6.17;;;13.60;99.90;;;;;;4891017;29;20188;-78
2022/04/30 17:00:12;;;;;;;7.40;5.97;;;13.60;99.90;;;;;;4901005;29;20190;-78
2022/04/30 17:02:39;;;;;;;8.37;6.37;;;13.50;99.90;;;;;;4901255;29;20213;-78
2022/04/30 17:05:06;;;;;;;8.10;5.87;;;13.50;99.90;;;;;;4885378;29;20577;-78
2022/04/30 17:07:36;;;;;;;10.20;5.77;;;13.40;99.90;;;;;;4901064;29;20206;-78
2022/04/30 17:10:04;;;;;;;8.27;6.27;;;13.30;99.90;;;;;;4901311;29;20614;-78
2022/04/30 17:12:30;;;;;;;9.30;5.70;;;13.30;99.90;;;;;;4870083;29;20207;-78
2022/04/30 17:14:56;;;;;;;8.57;6.87;;;13.30;99.90;;;;;;4901270;29;20193;-78
2022/04/30 17:17:25;;;;;;;10.07;6.23;;;13.30;99.90;;;;;;4885628;29;20197;-78
2022/04/30 17:19:51;;;;;;;9.93;6.67;;;13.30;99.90;;;;;;4918159;29;20617;-78
2022/04/30 17:22:18;;;;;;;7.70;6.50;;;13.30;99.90;;;;;;4900885;29;20253;-78
2022/04/30 17:24:44;;;;;;;13.73;10.03;;;13.20;99.90;;;;;;4901325;29;20269;-78
2022/04/30 17:27:12;;;;;;;8.70;6.00;;;13.20;99.90;;;;;;4901129;29;20646;-78
2022/04/30 17:29:38;;;;;;;7.20;6.20;;;13.20;99.90;;;;;;4901336;29;20203;-78
2022/04/30 17:40:16;;;;;;;7.47;5.50;;;13.10;99.90;;;;;;4903364;29;20269;-78
2022/04/30 17:42:45;;;;;;;6.20;5.50;;;13.00;99.90;;;;;;4869035;29;20229;-78
2022/04/30 17:45:11;;;;;;;7.00;5.40;;;12.90;99.90;;;;;;4900171;29;20186;-78
2022/04/30 17:47:38;;;;;;;8.53;5.70;;;12.80;99.90;;;;;;4884745;29;20281;-78
2022/04/30 17:50:04;;;;;;;7.17;5.90;;;12.80;99.90;;;;;;4900369;29;20178;-78
2022/04/30 17:52:31;;;;;;;9.57;5.70;;;12.70;99.90;;;;;;4900569;29;20621;-78
2022/04/30 17:54:57;;;;;;;15.40;9.63;;;12.70;99.90;;;;;;4900371;29;20175;-78
2022/04/30 17:57:23;;;;;;;8.03;6.20;;;12.70;99.90;;;;;;4869771;29;20190;-78
2022/04/30 17:59:50;;;;;;;7.47;5.47;;;12.70;99.90;;;;;;4885117;29;20197;-78
2022/04/30 18:02:16;;;;;;;10.30;7.10;;;12.60;99.90;;;;;;4901513;29;20301;-79
2022/04/30 18:04:42;;;;;;;8.53;6.00;;;12.50;99.90;;;;;;4888380;29;20222;-78
2022/04/30 18:07:07;;;;;;;6.63;5.30;;;12.30;99.90;;;;;;4884664;29;20562;-78
2022/04/30 18:09:36;;;;;;;11.20;7.60;;;12.30;99.90;;;;;;4900587;29;20648;-79
2022/04/30 18:12:04;;;;;;;8.77;5.90;;;12.30;99.90;;;;;;4899807;29;20198;-79
2022/04/30 18:14:31;;;;;;;8.10;5.73;;;12.30;99.90;;;;;;4884454;29;20209;-79
2022/04/30 18:16:58;;;;;;;7.33;5.37;;;12.30;99.90;;;;;;4868891;29;20270;-79
2022/04/30 18:19:24;;;;;;;8.20;5.37;;;12.30;99.90;;;;;;4884704;29;20198;-79
2022/04/30 18:21:50;;;;;;;7.63;5.80;;;12.10;99.90;;;;;;4883817;29;20210;-78
2022/04/30 18:24:16;;;;;;;10.07;5.80;;;12.10;99.90;;;;;;4883647;29;20186;-78
2022/04/30 18:26:42;;;;;;;6.83;5.50;;;12.00;99.90;;;;;;4898675;29;20261;-78
2022/04/30 18:29:08;;;;;;;6.33;5.43;;;12.00;99.90;;;;;;4883700;29;20672;-79
2022/04/30 18:31:34;;;;;;;8.20;6.10;;;12.00;99.90;;;;;;4899189;29;20197;-78
2022/04/30 18:34:00;;;;;;;7.33;6.37;;;12.00;99.90;;;;;;4915951;29;20185;-78
2022/04/30 18:36:28;;;;;;;6.07;5.23;;;11.90;99.90;;;;;;4915921;29;20176;-78
2022/04/30 18:38:54;;;;;;;7.57;6.53;;;11.90;99.90;;;;;;4899410;29;20547;-78
2022/04/30 18:41:20;;;;;;;7.97;5.33;;;11.90;99.90;;;;;;4898862;29;20222;-78
2022/04/30 18:43:46;;;;;;;6.63;5.27;;;11.90;99.90;;;;;;4899364;29;20187;-79
2022/04/30 18:46:15;;;;;;;7.93;5.13;;;12.00;99.90;;;;;;4869785;29;20214;-79
2022/04/30 18:48:41;;;;;;;9.03;6.30;;;11.90;99.90;;;;;;4900631;29;20590;-79
2022/04/30 18:51:09;;;;;;;10.90;5.43;;;11.90;99.90;;;;;;4869985;29;20307;-79
2022/04/30 18:53:35;;;;;;;6.77;5.70;;;11.90;99.90;;;;;;4885578;29;20182;-79
2022/04/30 19:01:30;;;;;;;9.03;5.67;;;12.00;99.90;;;;;;4917266;29;20260;-78
2022/04/30 19:03:55;;;;;;;7.27;5.87;;;11.90;99.90;;;;;;4898851;29;20190;-78
2022/04/30 19:06:21;;;;;;;6.37;5.30;;;11.90;99.90;;;;;;4883331;29;20193;-78
2022/04/30 19:08:47;;;;;;;6.93;5.30;;;11.80;99.90;;;;;;4883187;29;20261;-78
2022/04/30 19:11:13;;;;;;;8.30;5.30;;;11.80;99.90;;;;;;4867792;29;20205;-77
2022/04/30 19:13:39;;;;;;;6.20;5.60;;;11.90;99.90;;;;;;4867670;29;20186;-78
2022/04/30 19:16:07;;;;;;;8.73;5.80;;;11.90;99.90;;;;;;4898941;29;20190;-78
2022/04/30 19:18:33;;;;;;;9.00;5.60;;;11.90;99.90;;;;;;4883175;29;20191;-78
2022/04/30 19:20:58;;;;;;;8.77;5.80;;;11.90;99.90;;;;;;4883131;29;20673;-78
2022/04/30 19:23:25;;;;;;;6.27;5.20;;;11.90;99.90;;;;;;4882852;29;20240;-78
2022/04/30 19:25:51;;;;;;;6.77;5.20;;;11.90;99.90;;;;;;4883838;29;20185;-78
2022/04/30 19:28:17;;;;;;;6.57;5.53;;;11.80;99.90;;;;;;4898758;29;20583;-78
2022/04/30 19:30:44;;;;;;;8.23;6.30;;;11.90;99.90;;;;;;4898487;29;20648;-78
2022/04/30 19:33:14;;;;;;;6.07;5.47;;;11.80;99.90;;;;;;4883304;29;20190;-78
2022/04/30 19:35:40;;;;;;;8.30;5.90;;;11.80;99.90;;;;;;4898749;29;20186;-77
2022/04/30 19:38:07;;;;;;;8.43;5.90;;;11.70;99.90;;;;;;4884527;29;20220;-77
2022/04/30 19:40:33;;;;;;;7.30;5.30;;;11.70;99.90;;;;;;4901880;29;20198;-77
2022/04/30 19:43:00;;;;;;;7.30;5.67;;;11.70;99.90;;;;;;4901881;29;20190;-77
2022/04/30 19:45:26;;;;;;;6.97;5.50;;;11.70;99.90;;;;;;4886574;29;20205;-77
2022/04/30 19:47:52;;;;;;;10.40;5.90;;;11.70;99.90;;;;;;4886235;29;20210;-77
2022/04/30 19:50:19;;;;;;;6.07;5.40;;;11.70;99.90;;;;;;4901921;29;20234;-77
2022/04/30 19:52:45;;;;;;;8.40;5.97;;;11.70;99.90;;;;;;4885889;29;20567;-77
2022/04/30 19:55:13;;;;;;;7.43;5.70;;;11.70;99.90;;;;;;4901804;29;20230;-77
2022/04/30 19:57:41;;;;;;;8.57;5.50;;;11.60;99.90;;;;;;4902062;29;20184;-78
2022/04/30 20:00:08;;;;;;;7.13;6.13;;;11.50;99.90;;;;;;4902226;29;20668;-77
2022/04/30 20:02:37;;;;;;;7.13;5.87;;;11.50;99.90;;;;;;4886068;29;20208;-77
2022/04/30 20:05:03;;;;;;;7.37;6.20;;;11.50;99.90;;;;;;4908462;23;20221;-77
2022/04/30 20:07:29;;;;;;;10.57;6.50;;;11.40;99.90;;;;;;4919778;29;20273;-77
2022/04/30 20:09:55;;;;;;;7.93;5.87;;;11.40;99.90;;;;;;4936011;29;20205;-77
2022/04/30 20:17:49;;;;;;;8.50;6.10;;;11.20;99.90;;;;;;4904191;29;20609;-77
2022/04/30 20:20:16;;;;;;;7.30;5.97;;;11.20;99.90;;;;;;4918256;29;20266;-77
2022/04/30 20:22:42;;;;;;;6.47;5.80;;;11.20;99.90;;;;;;4870632;29;20188;-77
2022/04/30 20:25:08;;;;;;;6.83;5.97;;;11.20;99.90;;;;;;4901372;29;20198;-77
2022/04/30 20:27:33;;;;;;;8.40;6.00;;;11.10;99.90;;;;;;4901044;29;20206;-77
2022/04/30 20:29:59;;;;;;;6.53;5.83;;;11.10;99.90;;;;;;4901336;29;20174;-77
2022/04/30 20:37:59;;;;;;;6.73;6.00;;;11.10;99.90;;;;;;4918669;29;20281;-77
2022/04/30 20:40:25;;;;;;;7.80;5.90;;;11.10;99.90;;;;;;4886920;29;20193;-77
2022/04/30 20:42:51;;;;;;;7.87;5.50;;;11.10;99.90;;;;;;4885871;29;20188;-77
2022/04/30 20:45:16;;;;;;;7.97;5.40;;;11.10;99.90;;;;;;4885627;29;20296;-77
2022/04/30 20:47:42;;;;;;;6.20;5.33;;;11.10;99.90;;;;;;4918512;29;20614;-77
2022/04/30 20:50:08;;;;;;;7.23;5.60;;;10.90;99.90;;;;;;4878318;29;20182;-77
2022/04/30 20:52:35;;;;;;;6.60;5.47;;;10.90;99.90;;;;;;4895180;29;20179;-77
2022/04/30 20:55:02;;;;;;;9.63;5.70;;;10.80;99.90;;;;;;4893905;29;20225;-77
2022/04/30 20:57:27;;;;;;;7.97;5.40;;;10.80;99.90;;;;;;4888920;29;20186;-77
2022/04/30 20:59:54;;;;;;;6.43;5.77;;;10.70;99.90;;;;;;4883913;29;20190;-77
2022/04/30 21:02:20;;;;;;;8.60;5.70;;;10.60;99.90;;;;;;4883920;29;20190;-77
2022/04/30 21:04:47;;;;;;;6.83;6.10;;;10.50;99.90;;;;;;4915308;29;20237;-77
2022/04/30 21:07:15;;;;;;;7.53;6.37;;;10.40;99.90;;;;;;4899800;29;20208;-77
2022/04/30 21:09:48;;;;;;;7.57;5.87;;;10.50;99.90;;;;;;4900033;29;20179;-77
2022/04/30 21:12:13;;;;;;;9.50;6.23;;;10.50;99.90;;;;;;4899381;29;20207;-77
2022/04/30 21:14:40;;;;;;;7.70;6.00;;;10.40;99.90;;;;;;4900110;29;20207;-77
2022/04/30 21:17:05;;;;;;;8.03;5.90;;;10.30;99.90;;;;;;4900419;29;20233;-77
2022/04/30 21:19:37;;;;;;;8.50;5.73;;;10.30;99.90;;;;;;4900177;29;20190;-77
2022/04/30 21:22:05;;;;;;;7.70;6.13;;;10.30;99.90;;;;;;4885408;29;20302;-77
2022/04/30 21:24:32;;;;;;;9.27;6.23;;;10.30;99.90;;;;;;4900095;29;20210;-77
2022/04/30 21:27:00;;;;;;;6.90;5.80;;;10.20;99.90;;;;;;4884818;29;20267;-77
2022/04/30 21:29:26;;;;;;;8.27;5.60;;;10.20;99.90;;;;;;4900135;29;20708;-77
2022/04/30 21:31:52;;;;;;;7.80;5.80;;;10.20;99.90;;;;;;4884156;29;20718;-77
2022/04/30 21:34:18;;;;;;;6.33;5.70;;;10.30;99.90;;;;;;4899908;29;20701;-77
2022/04/30 21:36:44;;;;;;;9.13;6.40;;;10.30;99.90;;;;;;4899859;29;20222;-77
2022/04/30 21:39:09;;;;;;;9.70;5.80;;;10.40;99.90;;;;;;4884339;29;20238;-77
2022/04/30 21:41:53;;;;;;;7.17;5.77;;;10.40;99.90;;;;;;4884329;29;20183;-77
2022/04/30 21:44:23;;;;;;;9.17;5.97;;;10.40;99.90;;;;;;4888994;29;20208;-77
2022/04/30 21:46:49;;;;;;;8.27;6.10;;;10.50;99.90;;;;;;4899617;29;20170;-77
2022/04/30 21:49:16;;;;;;;6.90;6.03;;;10.50;99.90;;;;;;4915447;29;20213;-77
2022/04/30 21:51:42;;;;;;;8.10;6.50;;;10.60;99.90;;;;;;4899669;29;20178;-77
2022/04/30 21:54:08;;;;;;;7.50;6.20;;;10.60;99.90;;;;;;4884123;29;20205;-77
2022/04/30 22:02:02;;;;;;;8.80;5.93;;;10.60;99.90;;;;;;4901094;29;20203;-77
2022/04/30 22:04:28;;;;;;;7.17;5.87;;;10.60;99.90;;;;;;4899473;29;20214;-77
2022/04/30 22:06:56;;;;;;;6.93;5.97;;;10.60;99.90;;;;;;4899652;29;20189;-77
2022/04/30 22:09:23;;;;;;;7.63;5.70;;;10.60;99.90;;;;;;4884486;29;20235;-77
2022/04/30 22:11:49;;;;;;;7.87;6.30;;;10.70;99.90;;;;;;4883876;29;20186;-77
2022/04/30 22:14:15;;;;;;;6.37;5.57;;;10.70;99.90;;;;;;4899330;29;20202;-77
2022/04/30 22:16:41;;;;;;;7.07;5.50;;;10.70;99.90;;;;;;4914893;29;20185;-77
2022/04/30 22:19:09;;;;;;;6.33;5.37;;;10.60;99.90;;;;;;4883911;29;20185;-77
2022/04/30 22:21:37;;;;;;;8.60;5.50;;;10.50;99.90;;;;;;4884265;29;20192;-77
2022/04/30 22:24:03;;;;;;;6.20;5.33;;;10.40;99.90;;;;;;4898944;29;20254;-77
2022/04/30 22:26:29;;;;;;;6.70;5.17;;;10.30;99.90;;;;;;4899197;29;20233;-77
2022/04/30 22:28:55;;;;;;;5.50;4.90;;;10.30;99.90;;;;;;4899180;29;20616;-77
2022/04/30 22:31:20;;;;;;;7.20;5.40;;;10.30;99.90;;;;;;4883918;29;20199;-77
2022/04/30 22:33:46;;;;;;;7.00;5.17;;;10.40;99.90;;;;;;4898882;29;20226;-77
2022/04/30 22:36:12;;;;;;;6.97;5.20;;;10.40;99.90;;;;;;4899046;29;20178;-77
2022/04/30 22:38:38;;;;;;;7.03;5.33;;;10.30;99.90;;;;;;4883833;29;20276;-77
2022/04/30 22:43:47;;;;;;;7.57;5.17;;;10.30;99.90;;;;;;4901680;29;20208;-77
2022/04/30 22:46:13;;;;;;;8.20;5.20;;;10.30;99.90;;;;;;4883725;29;20284;-77
2022/04/30 22:48:38;;;;;;;9.43;5.40;;;10.20;99.90;;;;;;4899068;29;20206;-77
2022/04/30 22:51:04;;;;;;;6.57;5.27;;;10.20;99.90;;;;;;4883427;29;20270;-77
2022/04/30 22:53:30;;;;;;;6.93;5.17;;;10.20;99.90;;;;;;4898712;29;20202;-77
2022/04/30 22:55:56;;;;;;;6.13;4.80;;;10.20;99.90;;;;;;4898901;29;20595;-77
2022/04/30 22:58:21;;;;;;;6.57;4.83;;;10.20;99.90;;;;;;4898737;29;20570;-77
2022/04/30 23:00:47;;;;;;;7.40;5.07;;;10.00;99.90;;;;;;4915809;29;20190;-77
2022/04/30 23:03:13;;;;;;;5.63;4.57;;;10.00;99.90;;;;;;4898439;29;20189;-77
2022/04/30 23:05:39;;;;;;;6.67;4.80;;;10.00;99.90;;;;;;4914504;29;20240;-77
2022/04/30 23:08:05;;;;;;;6.43;4.60;;;10.00;99.90;;;;;;4914581;29;20334;-77
2022/04/30 23:10:30;;;;;;;5.80;4.83;;;10.00;99.90;;;;;;4898876;29;20186;-77
2022/04/30 23:15:42;;;;;;;8.17;4.97;;;10.00;99.90;;;;;;4919663;29;20273;-77
2022/04/30 23:18:08;;;;;;;6.77;4.77;;;10.00;99.90;;;;;;4902674;29;20182;-77
2022/04/30 23:20:33;;;;;;;5.43;4.67;;;10.00;99.90;;;;;;4902547;29;20193;-77
2022/04/30 23:22:59;;;;;;;6.80;5.03;;;10.00;99.90;;;;;;4918941;29;20177;-77
2022/04/30 23:25:25;;;;;;;5.97;5.07;;;10.00;99.90;;;;;;4886619;29;20190;-77
2022/04/30 23:27:50;;;;;;;6.90;4.47;;;10.00;99.90;;;;;;4902200;29;20225;-77
2022/04/30 23:30:16;;;;;;;6.83;5.00;;;10.10;99.90;;;;;;4886865;29;20182;-77
2022/04/30 23:32:46;;;;;;;6.63;5.13;;;10.00;99.90;;;;;;4901964;29;20183;-77
2022/04/30 23:35:12;;;;;;;6.93;5.17;;;10.00;99.90;;;;;;4917754;29;20202;-77
2022/04/30 23:37:38;;;;;;;6.80;5.00;;;10.00;99.90;;;;;;4886428;29;20182;-77
2022/04/30 23:40:05;;;;;;;7.43;5.10;;;9.90;99.90;;;;;;4902082;29;20186;-77
2022/04/30 23:42:30;;;;;;;6.67;5.10;;;10.00;99.90;;;;;;4919004;29;20181;-77
2022/04/30 23:44:57;;;;;;;7.07;5.03;;;10.00;99.90;;;;;;4901936;29;20285;-77
2022/04/30 23:47:24;;;;;;;6.67;5.00;;;10.00;99.90;;;;;;4886664;29;20186;-77
2022/04/30 23:49:51;;;;;;;5.40;4.90;;;10.00;99.90;;;;;;4902343;29;20281;-77
2022/04/30 23:52:16;;;;;;;6.37;4.90;;;10.00;99.90;;;;;;4886365;29;20206;-77
2022/04/30 23:54:42;;;;;;;7.33;4.87;;;10.00;99.90;;;;;;4901769;29;20234;-77
2022/04/30 23:57:07;;;;;;;5.30;4.80;;;10.00;99.90;;;;;;4917413;29;20175;-77
2022/04/30 23:59:33;;;;;;;5.83;4.77;;;9.90;99.90;;;;;;4901827;29;20170;-77
